METAR Data
IDs: Format: Raw Decoded Include TAF

Data at: 1740 UTC 16 Oct 2021

KFST 161653Z AUTO 14013KT 10SM CLR 17/M02 A3045 RMK AO2 SLP284 T01671017 $
KFST 161553Z AUTO 14012KT 10SM CLR 15/00 A3046 RMK AO2 SLP289 T01500000 $
KFST 161453Z AUTO 15011KT 10SM CLR 13/02 A3045 RMK AO2 SLP284 T01330022 53016 $
KFST 161353Z AUTO 16008KT 10SM CLR 11/02 A3043 RMK AO2 SLP279 T01060017 $
KFST 161253Z AUTO 15007KT 10SM CLR 09/01 A3042 RMK AO2 SLP274 T00940011 $
KFST 161153Z AUTO 16007KT 10SM CLR 08/01 A3040 RMK AO2 SLP266 60000 T00830006 10122 20078 53007 $
KFST 161053Z AUTO 16007KT 10SM CLR 08/M01 A3038 RMK AO2 SLP259 T00831006
KFST 160953Z AUTO 14006KT 10SM CLR 09/M01 A3037 RMK AO2 RAE04 SLP254 P0000 T00941006
KFST 160853Z AUTO 15005KT 10SM -RA CLR 10/M01 A3038 RMK AO2 RAB17 SLP254 P0000 60000 T01001006 50005
KFST 160753Z AUTO 14005KT 10SM CLR 11/M01 A3038 RMK AO2 SLP255 T01111006
KFST 160653Z AUTO 13006KT 10SM CLR 12/M01 A3036 RMK AO2 SLP249 T01221006
KFST 160553Z AUTO 09007KT 10SM CLR 12/M01 A3036 RMK AO2 SLP248 T01221011 10217 20117 402390117 51020
KFST 160453Z AUTO 08005KT 10SM CLR 12/M02 A3035 RMK AO2 SLP247 T01171022
KFST 160353Z AUTO 08005KT 10SM CLR 13/M03 A3033 RMK AO2 SLP241 T01281028
KFST 160253Z AUTO 06006KT 10SM CLR 15/M02 A3030 RMK AO2 SLP229 T01501022 53024
KFST 160153Z AUTO 05005KT 10SM CLR 16/M02 A3027 RMK AO2 SLP220 T01611022
KFST 160053Z AUTO 03006KT 10SM CLR 18/M01 A3024 RMK AO2 SLP208 T01831011
KFST 152353Z AUTO 01008KT 10SM CLR 22/M01 A3022 RMK AO2 SLP200 T02171011 10239 20217 53007
KFST 152253Z AUTO 01011KT 10SM CLR 23/M01 A3020 RMK AO2 SLP190 T02281011
KFST 152153Z AUTO 35011KT 10SM CLR 23/M01 A3020 RMK AO2 SLP192 T02331011
KFST 152053Z AUTO 02013G17KT 10SM CLR 24/M02 A3020 RMK AO2 SLP188 T02391017 56014
KFST 151953Z AUTO 34011G20KT 10SM CLR 23/M02 A3020 RMK AO2 SLP189 T02281022
KFST 151853Z AUTO 34012G20KT 10SM CLR 23/M02 A3022 RMK AO2 SLP194 T02281022 $
KFST 151753Z AUTO 36012KT 10SM CLR 23/M02 A3024 RMK AO2 SLP201 T02281022 10228 20122 50007 $
KFST 151653Z AUTO 35012KT 10SM CLR 20/M03 A3025 RMK AO2 SLP206 T02001028 $
KFST 151553Z AUTO 34014KT 10SM CLR 18/M03 A3024 RMK AO2 SLP204 T01831028 $
KFST 151453Z AUTO 31012KT 10SM CLR 17/M04 A3022 RMK AO2 SLP197 T01671039 53040 $
KFST 151353Z AUTO 30009KT 10SM CLR 14/M04 A3016 RMK AO2 SLP178 T01441044 $
KFST 151253Z AUTO 27010KT 10SM CLR 13/M03 A3012 RMK AO2 SLP161 T01331028 $
KFST 151153Z AUTO 26008KT 10SM CLR 13/M01 A3009 RMK AO2 SLP148 T01281011 10189 20122 53028 $
KFST 151053Z AUTO 28006KT 10SM CLR 16/M01 A3005 RMK AO2 SLP131 T01561011 $
KFST 150953Z AUTO 20004KT 10SM CLR 12/M01 A3003 RMK AO2 SLP126 T01221011 $
KFST 150853Z AUTO 19008KT 10SM CLR 15/M01 A3000 RMK AO2 SLP115 T01501011 53005 $
KFST 150753Z AUTO 25007KT 10SM CLR 17/M01 A2999 RMK AO2 SLP109 T01721011 $
KFST 150653Z AUTO 23006KT 10SM CLR 17/M02 A2999 RMK AO2 SLP110 T01671017 $
KFST 150553Z AUTO 27007KT 10SM CLR 19/M02 A2998 RMK AO2 SLP108 T01891017 10294 20183 403110161 $